Time;durP1;ratioP1;P1;durP2;ratioP2;P2;SDS_P1;SDS_P2;PMS_P1;PMS_P2;Temp;Humidity;BMP_temperature;BMP_pressure;BME280_temperature;BME280_humidity;BME280_pressure;Samples;Min_cycle;Max_cycle;Signal;HPM_P1;HPM_P2
2022/04/28 00:00:19;;;;;;;;;;;8.00;99.90;;;;;;5070042;28;19928;-49
2022/04/28 00:02:48;;;;;;;;;;;7.90;99.90;;;;;;5068798;28;19929;-50
2022/04/28 00:05:15;;;;;;;;;;;7.90;99.90;;;;;;5068478;28;19986;-50
2022/04/28 00:07:42;;;;;;;;;;;7.80;99.90;;;;;;5069380;28;19932;-49
2022/04/28 00:10:10;;;;;;;;;;;7.80;99.90;;;;;;5068862;28;19932;-50
2022/04/28 00:12:37;;;;;;;;;;;7.80;99.90;;;;;;5068777;28;20386;-49
2022/04/28 00:15:05;;;;;;;;;;;7.70;99.90;;;;;;5070830;28;19932;-48
2022/04/28 00:17:32;;;;;;;;;;;7.70;99.90;;;;;;5069733;28;19932;-49
2022/04/28 00:20:00;;;;;;;;;;;7.70;99.90;;;;;;5075110;28;20412;-49
2022/04/28 00:22:27;;;;;;;;;;;7.70;99.90;;;;;;5068387;28;20434;-49
2022/04/28 00:24:55;;;;;;;;;;;7.70;99.90;;;;;;5068669;28;19932;-51
2022/04/28 00:27:21;;;;;;;;;;;7.50;99.90;;;;;;5070863;28;19928;-49
2022/04/28 00:29:48;;;;;;;;;;;7.50;99.90;;;;;;5080085;22;19924;-59
2022/04/28 00:32:15;;;;;;;;;;;7.50;99.90;;;;;;5052720;28;19928;-58
2022/04/28 00:34:42;;;;;;;;;;;7.40;99.90;;;;;;5053453;28;19925;-58
2022/04/28 00:37:10;;;;;;;;;;;7.40;99.90;;;;;;5053067;28;20004;-59
2022/04/28 00:39:38;;;;;;;;;;;7.40;99.90;;;;;;5052845;28;19924;-59
2022/04/28 00:42:08;;;;;;;;;;;7.30;99.90;;;;;;5054227;28;19933;-59
2022/04/28 00:44:35;;;;;;;;;;;7.30;99.90;;;;;;5053779;28;19932;-58
2022/04/28 00:47:01;;;;;;;;;;;7.30;99.90;;;;;;5051531;28;19925;-59
2022/04/28 00:52:14;;;;;;;;;;;7.20;99.90;;;;;;5052333;28;19928;-59
2022/04/28 00:54:42;;;;;;;;;;;7.20;99.90;;;;;;5053534;28;19929;-59
2022/04/28 00:57:10;;;;;;;;;;;7.20;99.90;;;;;;5054269;28;19924;-59
2022/04/28 00:59:38;;;;;;;;;;;7.20;99.90;;;;;;5052998;28;20303;-59
2022/04/28 01:02:05;;;;;;;;;;;7.20;99.90;;;;;;5053004;28;19944;-59
2022/04/28 01:04:32;;;;;;;;;;;7.10;99.90;;;;;;5051566;28;19978;-58
2022/04/28 01:06:59;;;;;;;;;;;7.00;99.90;;;;;;5053089;28;19978;-58
2022/04/28 01:09:27;;;;;;;;;;;7.00;99.90;;;;;;5053457;28;19948;-58
2022/04/28 01:11:53;;;;;;;;;;;7.00;99.90;;;;;;5054192;28;19982;-59
2022/04/28 01:14:20;;;;;;;;;;;7.00;99.90;;;;;;5052847;28;19936;-58
2022/04/28 01:16:47;;;;;;;;;;;7.30;99.90;;;;;;5044633;28;19929;-58
2022/04/28 01:19:14;;;;;;;;;;;7.40;99.90;;;;;;5053543;28;19979;-58
2022/04/28 01:21:42;;;;;;;;;;;7.40;99.90;;;;;;5052640;28;19983;-59
2022/04/28 01:24:09;;;;;;;;;;;7.30;99.90;;;;;;5052642;28;19925;-59
2022/04/28 01:26:36;;;;;;;;;;;7.10;99.90;;;;;;5052493;28;19947;-59
2022/04/28 01:29:03;;;;;;;;;;;7.00;99.90;;;;;;5051832;28;19925;-58
2022/04/28 01:31:30;;;;;;;;;;;6.90;99.90;;;;;;5048055;28;19925;-59
2022/04/28 01:33:56;;;;;;;;;;;6.80;99.90;;;;;;5050484;28;19986;-58
2022/04/28 01:36:23;;;;;;;;;;;6.70;99.90;;;;;;5053028;28;20338;-59
2022/04/28 01:38:51;;;;;;;;;;;6.70;99.90;;;;;;5049228;28;19925;-58
2022/04/28 01:41:19;;;;;;;;;;;6.60;99.90;;;;;;5044985;28;19924;-58
2022/04/28 01:43:46;;;;;;;;;;;6.60;99.90;;;;;;5052344;28;19980;-58
2022/04/28 01:46:13;;;;;;;;;;;6.60;99.90;;;;;;5051146;28;20439;-58
2022/04/28 01:48:39;;;;;;;;;;;6.60;99.90;;;;;;5052811;28;20471;-59
2022/04/28 01:56:32;;;;;;;;;;;6.50;99.90;;;;;;5025077;28;19986;-58
2022/04/28 01:58:59;;;;;;;;;;;6.50;99.90;;;;;;5051480;28;19925;-58
2022/04/28 02:01:25;;;;;;;;;;;6.50;99.90;;;;;;5051772;28;19982;-58
2022/04/28 02:03:52;;;;;;;;;;;6.50;99.90;;;;;;5052495;28;20587;-59
2022/04/28 02:06:19;;;;;;;;;;;6.50;99.90;;;;;;5049511;28;20382;-58
2022/04/28 02:08:46;;;;;;;;;;;6.50;99.90;;;;;;5051821;28;19929;-58
2022/04/28 02:11:14;;;;;;;;;;;6.50;99.90;;;;;;5051126;28;19925;-59
2022/04/28 02:13:41;;;;;;;;;;;6.40;99.90;;;;;;5051325;28;20453;-58
2022/04/28 02:16:10;;;;;;;;;;;6.40;99.90;;;;;;5045844;28;20483;-59
2022/04/28 02:18:37;;;;;;;;;;;6.30;99.90;;;;;;5053138;28;19925;-58
2022/04/28 02:21:04;;;;;;;;;;;6.30;99.90;;;;;;5052327;28;19986;-58
2022/04/28 02:23:30;;;;;;;;;;;6.30;99.90;;;;;;5051725;28;19979;-58
2022/04/28 02:25:57;;;;;;;;;;;6.20;99.90;;;;;;5049442;28;19970;-58
2022/04/28 02:28:25;;;;;;;;;;;6.10;99.90;;;;;;5053096;28;19925;-59
2022/04/28 02:30:52;;;;;;;;;;;6.10;99.90;;;;;;5056581;28;19925;-58
2022/04/28 02:33:19;;;;;;;;;;;6.10;99.90;;;;;;5054801;28;19979;-58
2022/04/28 02:35:46;;;;;;;;;;;6.00;99.90;;;;;;5057303;28;20005;-59
2022/04/28 02:38:12;;;;;;;;;;;6.00;99.90;;;;;;5058776;28;20030;-58
2022/04/28 02:40:39;;;;;;;;;;;6.00;99.90;;;;;;5049159;28;19979;-58
2022/04/28 02:43:06;;;;;;;;;;;6.10;99.90;;;;;;5050994;28;19929;-58
2022/04/28 02:45:34;;;;;;;;;;;6.10;99.90;;;;;;5047107;28;19929;-58
2022/04/28 02:48:01;;;;;;;;;;;6.00;99.90;;;;;;5051257;28;19928;-58
2022/04/28 02:50:28;;;;;;;;;;;6.00;99.90;;;;;;5051597;28;19978;-58
2022/04/28 02:52:55;;;;;;;;;;;6.00;99.90;;;;;;5051656;28;19933;-58
2022/04/28 02:55:21;;;;;;;;;;;6.00;99.90;;;;;;5050490;28;19924;-58
2022/04/28 02:57:48;;;;;;;;;;;6.00;99.90;;;;;;5051674;28;19925;-58
2022/04/28 03:00:15;;;;;;;;;;;6.00;99.90;;;;;;5052480;28;19933;-58
2022/04/28 03:02:43;;;;;;;;;;;5.90;99.90;;;;;;5051648;28;19986;-58
2022/04/28 03:05:11;;;;;;;;;;;6.00;99.90;;;;;;5037184;28;19925;-58
2022/04/28 03:10:51;;;;;;;;;;;5.90;99.90;;;;;;5047178;28;19928;-58
2022/04/28 03:13:19;;;;;;;;;;;5.90;99.90;;;;;;5032651;28;19932;-58
2022/04/28 03:15:46;;;;;;;;;;;5.90;99.90;;;;;;5047182;28;19929;-59
2022/04/28 03:18:15;;;;;;;;;;;5.90;99.90;;;;;;5052395;28;20004;-58
2022/04/28 03:20:41;;;;;;;;;;;5.80;99.90;;;;;;5052200;28;20379;-58
2022/04/28 03:23:08;;;;;;;;;;;5.80;99.90;;;;;;5051137;28;20614;-58
2022/04/28 03:25:35;;;;;;;;;;;5.80;99.90;;;;;;5051248;28;19925;-58
2022/04/28 03:28:02;;;;;;;;;;;5.80;99.90;;;;;;5052445;28;20284;-58
2022/04/28 03:30:28;;;;;;;;;;;5.80;99.90;;;;;;5051837;28;20422;-58
2022/04/28 03:32:55;;;;;;;;;;;5.70;99.90;;;;;;5051976;28;20453;-58
2022/04/28 03:35:23;;;;;;;;;;;5.70;99.90;;;;;;5046533;28;19949;-58
2022/04/28 03:37:50;;;;;;;;;;;5.70;99.90;;;;;;5047829;28;19987;-58
2022/04/28 03:40:17;;;;;;;;;;;5.70;99.90;;;;;;5051672;28;19928;-58
2022/04/28 03:42:44;;;;;;;;;;;5.70;99.90;;;;;;5051455;28;20445;-58
2022/04/28 03:45:11;;;;;;;;;;;5.70;99.90;;;;;;5052129;28;19964;-58
2022/04/28 03:47:38;;;;;;;;;;;5.70;99.90;;;;;;5053557;28;19929;-58
2022/04/28 03:50:05;;;;;;;;;;;5.70;99.90;;;;;;5051767;28;19940;-58
2022/04/28 03:52:33;;;;;;;;;;;5.70;99.90;;;;;;5067168;28;19931;-58
2022/04/28 03:55:00;;;;;;;;;;;5.70;99.90;;;;;;5071473;28;19925;-58
2022/04/28 03:57:27;;;;;;;;;;;5.60;99.90;;;;;;5076652;28;19936;-59
2022/04/28 03:59:56;;;;;;;;;;;5.60;99.90;;;;;;5070516;28;19925;-58
2022/04/28 04:02:23;;;;;;;;;;;5.60;99.90;;;;;;5075570;28;19925;-58
2022/04/28 04:04:50;;;;;;;;;;;5.50;99.90;;;;;;5069367;28;19931;-58
2022/04/28 04:07:16;;;;;;;;;;;5.60;99.90;;;;;;5059791;28;19925;-58
2022/04/28 04:09:45;;;;;;;;;;;5.70;99.90;;;;;;5055730;28;19929;-58
2022/04/28 04:12:11;;;;;;;;;;;5.70;99.90;;;;;;5048470;28;19943;-58
2022/04/28 04:14:38;;;;;;;;;;;5.60;99.90;;;;;;5055568;28;19986;-58
2022/04/28 04:17:05;;;;;;;;;;;5.80;99.90;;;;;;5049603;28;20394;-58
2022/04/28 04:19:32;;;;;;;;;;;5.70;99.90;;;;;;5052036;28;19947;-58
2022/04/28 04:21:59;;;;;;;;;;;5.70;99.90;;;;;;5050693;28;20303;-59
2022/04/28 04:24:26;;;;;;;;;;;5.70;99.90;;;;;;5047819;28;19939;-58
2022/04/28 04:26:54;;;;;;;;;;;5.70;99.90;;;;;;5054188;28;19970;-58
2022/04/28 04:29:21;;;;;;;;;;;5.80;99.90;;;;;;5048868;28;19928;-58
2022/04/28 04:34:31;;;;;;;;;;;5.80;99.90;;;;;;5048883;28;19921;-59
2022/04/28 04:36:58;;;;;;;;;;;5.80;99.90;;;;;;5056708;28;20350;-58
2022/04/28 04:39:25;;;;;;;;;;;5.90;99.90;;;;;;5039917;28;19933;-58
2022/04/28 04:41:51;;;;;;;;;;;6.50;99.90;;;;;;5052303;28;20287;-59
2022/04/28 04:44:19;;;;;;;;;;;7.40;99.90;;;;;;5048736;28;19933;-59
2022/04/28 04:46:46;;;;;;;;;;;8.80;99.90;;;;;;5049153;28;19982;-58
2022/04/28 04:49:13;;;;;;;;;;;10.00;99.90;;;;;;5047968;28;20914;-59
2022/04/28 04:51:40;;;;;;;;;;;11.00;99.90;;;;;;5051157;28;19979;-59
2022/04/28 04:54:06;;;;;;;;;;;11.20;99.90;;;;;;5049125;28;19979;-59
2022/04/28 04:56:38;;;;;;;;;;;11.00;99.90;;;;;;5052417;28;20345;-58
2022/04/28 04:59:04;;;;;;;;;;;10.20;99.90;;;;;;5052419;28;19929;-59
2022/04/28 05:01:32;;;;;;;;;;;9.50;99.90;;;;;;5052116;28;20362;-58
2022/04/28 05:03:59;;;;;;;;;;;8.80;99.90;;;;;;5051642;28;19925;-58
2022/04/28 05:06:26;;;;;;;;;;;8.40;99.90;;;;;;5051595;28;20336;-59
2022/04/28 05:08:53;;;;;;;;;;;8.60;99.90;;;;;;5051534;28;20420;-59
2022/04/28 05:11:19;;;;;;;;;;;10.20;99.90;;;;;;5044414;28;19925;-59
2022/04/28 05:13:46;;;;;;;;;;;12.20;99.90;;;;;;5050190;28;20028;-59
2022/04/28 05:16:13;;;;;;;;;;;14.30;99.90;;;;;;5048908;28;20369;-59
2022/04/28 05:18:41;;;;;;;;;;;16.30;99.90;;;;;;5033337;28;19925;-59
2022/04/28 05:21:08;;;;;;;;;;;17.40;99.90;;;;;;5045563;28;21017;-59
2022/04/28 05:23:35;;;;;;;;;;;17.90;99.90;;;;;;5050792;28;20322;-59
2022/04/28 05:26:01;;;;;;;;;;;18.20;99.90;;;;;;5050704;28;19924;-59
2022/04/28 05:28:29;;;;;;;;;;;18.60;99.90;;;;;;5043618;28;19929;-59
2022/04/28 05:30:55;;;;;;;;;;;18.90;99.90;;;;;;5048250;28;20251;-59
2022/04/28 05:33:22;;;;;;;;;;;19.30;99.90;;;;;;5052735;28;19925;-59
2022/04/28 05:35:51;;;;;;;;;;;19.90;99.90;;;;;;5051796;28;19928;-60
2022/04/28 05:38:17;;;;;;;;;;;20.80;98.50;;;;;;5051401;28;20001;-59
2022/04/28 05:40:45;;;;;;;;;;;21.80;96.60;;;;;;5045085;28;19991;-59
2022/04/28 05:45:58;;;;;;;;;;;23.70;92.80;;;;;;5048696;28;19974;-60
2022/04/28 05:48:25;;;;;;;;;;;24.20;91.10;;;;;;5047439;28;20023;-59
2022/04/28 05:50:53;;;;;;;;;;;24.20;90.50;;;;;;5044571;28;19969;-59
2022/04/28 05:53:20;;;;;;;;;;;24.40;88.70;;;;;;5050912;28;20382;-59
2022/04/28 05:55:47;;;;;;;;;;;24.40;86.10;;;;;;5050842;28;20349;-59
2022/04/28 05:58:14;;;;;;;;;;;24.30;85.80;;;;;;5033812;28;20344;-59
2022/04/28 06:00:42;;;;;;;;;;;23.80;86.20;;;;;;5037025;28;20379;-59
2022/04/28 06:03:10;;;;;;;;;;;23.80;87.00;;;;;;5046804;28;19925;-60
2022/04/28 06:05:36;;;;;;;;;;;24.90;84.70;;;;;;5050788;28;19950;-60
2022/04/28 06:08:05;;;;;;;;;;;24.50;85.40;;;;;;5050471;28;19924;-60
2022/04/28 06:10:32;;;;;;;;;;;24.90;84.50;;;;;;5050734;28;20018;-60
2022/04/28 06:12:59;;;;;;;;;;;26.10;84.30;;;;;;5050536;28;19933;-60
2022/04/28 06:15:25;;;;;;;;;;;27.40;80.30;;;;;;5032492;28;19925;-59
2022/04/28 06:17:52;;;;;;;;;;;25.90;80.80;;;;;;5049111;28;19929;-61
2022/04/28 06:20:19;;;;;;;;;;;24.60;83.00;;;;;;5050474;28;19940;-61
2022/04/28 06:22:46;;;;;;;;;;;25.50;83.30;;;;;;5031864;28;19933;-60
2022/04/28 06:25:14;;;;;;;;;;;26.80;80.00;;;;;;5043407;28;19931;-61
2022/04/28 06:27:41;;;;;;;;;;;26.40;79.90;;;;;;5043609;28;19925;-60
2022/04/28 06:30:08;;;;;;;;;;;25.60;80.10;;;;;;5078185;22;20444;-52
2022/04/28 06:32:35;;;;;;;;;;;23.70;84.00;;;;;;5069660;28;19928;-53
2022/04/28 06:35:02;;;;;;;;;;;24.40;82.80;;;;;;5067212;28;19979;-52
2022/04/28 06:37:29;;;;;;;;;;;25.60;78.70;;;;;;5064372;28;20452;-53
2022/04/28 06:39:56;;;;;;;;;;;25.00;79.40;;;;;;5068293;28;19982;-53
2022/04/28 06:42:24;;;;;;;;;;;26.40;78.80;;;;;;5057703;28;20376;-53
2022/04/28 06:44:51;;;;;;;;;;;27.20;75.10;;;;;;5064871;28;19925;-52
2022/04/28 06:47:18;;;;;;;;;;;28.20;74.10;;;;;;5069726;28;20397;-53
2022/04/28 06:49:44;;;;;;;;;;;27.60;75.10;;;;;;5068699;28;19924;-53
2022/04/28 06:52:11;;;;;;;;;;;28.50;71.90;;;;;;5071002;28;19925;-52
2022/04/28 06:54:39;;;;;;;;;;;29.40;70.30;;;;;;5068378;28;19929;-53
2022/04/28 06:57:05;;;;;;;;;;;27.90;73.70;;;;;;5066203;28;19928;-53
2022/04/28 06:59:33;;;;;;;;;;;28.10;72.40;;;;;;5071960;28;19924;-53
2022/04/28 07:02:00;;;;;;;;;;;29.00;68.60;;;;;;5071512;28;20357;-53
2022/04/28 07:04:27;;;;;;;;;;;29.60;66.40;;;;;;5067764;28;20386;-53
2022/04/28 07:06:54;;;;;;;;;;;29.90;65.80;;;;;;5071118;28;19968;-52
2022/04/28 07:09:21;;;;;;;;;;;30.20;65.90;;;;;;5072003;28;19936;-53
2022/04/28 07:11:47;;;;;;;;;;;29.80;63.50;;;;;;5071963;28;20348;-53
2022/04/28 07:14:15;;;;;;;;;;;29.90;64.90;;;;;;5069709;28;19947;-52
2022/04/28 07:16:43;;;;;;;;;;;28.60;67.20;;;;;;5070986;28;19924;-53
2022/04/28 07:19:10;;;;;;;;;;;27.80;69.80;;;;;;5060555;28;19929;-53
2022/04/28 07:21:37;;;;;;;;;;;26.10;71.30;;;;;;5058865;28;20895;-53
2022/04/28 07:24:04;;;;;;;;;;;26.90;70.10;;;;;;5052242;28;19932;-53
2022/04/28 07:26:30;;;;;;;;;;;28.10;67.50;;;;;;5052097;28;19929;-52
2022/04/28 07:28:57;;;;;;;;;;;29.40;66.90;;;;;;5051779;28;19931;-52
2022/04/28 07:31:24;;;;;;;;;;;30.50;63.80;;;;;;5057366;28;20443;-53
2022/04/28 07:33:52;;;;;;;;;;;30.70;64.80;;;;;;5052660;28;20386;-53
2022/04/28 07:36:19;;;;;;;;;;;31.80;60.30;;;;;;5053458;28;19925;-53
2022/04/28 07:38:46;;;;;;;;;;;31.70;61.70;;;;;;5052226;28;19928;-53
2022/04/28 07:41:14;;;;;;;;;;;30.40;63.70;;;;;;5053499;28;20007;-53
2022/04/28 07:43:40;;;;;;;;;;;29.40;65.40;;;;;;5059576;28;19967;-53
2022/04/28 07:46:07;;;;;;;;;;;27.90;67.60;;;;;;5063830;28;19985;-52
2022/04/28 07:48:34;;;;;;;;;;;27.20;69.00;;;;;;5056976;28;19990;-52
2022/04/28 07:51:03;;;;;;;;;;;26.90;69.70;;;;;;5069740;28;19983;-52
2022/04/28 07:53:31;;;;;;;;;;;28.30;68.40;;;;;;5070561;28;19924;-52
2022/04/28 07:56:18;;;;;;;;;;;28.90;67.40;;;;;;5070883;28;20390;-52
2022/04/28 07:58:45;;;;;;;;;;;27.60;68.80;;;;;;5068234;28;19946;-53
2022/04/28 08:01:12;;;;;;;;;;;26.80;70.60;;;;;;5069567;28;20398;-52
2022/04/28 08:03:39;;;;;;;;;;;28.20;67.60;;;;;;5071162;28;19928;-53
2022/04/28 08:06:07;;;;;;;;;;;29.10;64.80;;;;;;5071178;28;19940;-52
2022/04/28 08:08:36;;;;;;;;;;;29.80;63.80;;;;;;5062755;28;19932;-52
2022/04/28 08:11:04;;;;;;;;;;;29.30;63.50;;;;;;5070364;28;19932;-52
2022/04/28 08:13:31;;;;;;;;;;;28.30;65.20;;;;;;5059443;28;19971;-53
2022/04/28 08:15:58;;;;;;;;;;;28.40;67.50;;;;;;5062356;28;19929;-52
2022/04/28 08:18:25;;;;;;;;;;;29.00;65.30;;;;;;5051036;28;19999;-52
2022/04/28 08:20:51;;;;;;;;;;;26.40;68.10;;;;;;5051198;28;20453;-52
2022/04/28 08:23:19;;;;;;;;;;;26.20;70.40;;;;;;5054859;28;19982;-52
2022/04/28 08:25:46;;;;;;;;;;;24.40;74.70;;;;;;5059798;28;19986;-52
2022/04/28 08:28:13;;;;;;;;;;;24.50;75.40;;;;;;5062809;28;19928;-52
2022/04/28 08:30:40;;;;;;;;;;;25.00;74.20;;;;;;5059099;28;19990;-51
2022/04/28 08:33:07;;;;;;;;;;;25.30;73.80;;;;;;5051901;28;19925;-52
2022/04/28 08:35:33;;;;;;;;;;;26.30;70.50;;;;;;5051422;28;19986;-52
2022/04/28 08:38:00;;;;;;;;;;;27.70;69.00;;;;;;5054943;28;19933;-52
2022/04/28 08:40:28;;;;;;;;;;;27.60;67.60;;;;;;5058407;28;20398;-51
2022/04/28 08:42:58;;;;;;;;;;;27.80;69.00;;;;;;5055012;28;19924;-52
2022/04/28 08:45:27;;;;;;;;;;;27.20;69.50;;;;;;5054869;28;19925;-52
2022/04/28 08:47:54;;;;;;;;;;;26.90;69.80;;;;;;5054593;28;19925;-52
2022/04/28 08:50:22;;;;;;;;;;;26.20;70.00;;;;;;5055121;28;20387;-51
2022/04/28 08:52:49;;;;;;;;;;;26.00;72.60;;;;;;5055268;28;19925;-51
2022/04/28 08:55:16;;;;;;;;;;;26.10;71.30;;;;;;5073477;28;19932;-51
2022/04/28 08:57:45;;;;;;;;;;;25.00;73.30;;;;;;5069950;28;19929;-52
2022/04/28 09:00:12;;;;;;;;;;;25.80;72.50;;;;;;5073385;28;20007;-51
2022/04/28 09:02:39;;;;;;;;;;;25.80;71.10;;;;;;5070946;28;19924;-52
2022/04/28 09:05:08;;;;;;;;;;;24.80;71.60;;;;;;5071752;28;19968;-51
2022/04/28 09:07:35;;;;;;;;;;;25.80;73.10;;;;;;5069257;28;20302;-52
2022/04/28 09:10:22;;;;;;;;;;;25.60;71.90;;;;;;5073782;28;19958;-53
2022/04/28 09:12:56;;;;;;;;;;;26.60;71.80;;;;;;5074061;28;19987;-52
2022/04/28 09:15:23;;;;;;;;;;;27.10;72.30;;;;;;5068185;28;20002;-51
2022/04/28 09:17:50;;;;;;;;;;;25.50;71.20;;;;;;5073934;28;19950;-51
2022/04/28 09:20:16;;;;;;;;;;;24.80;71.20;;;;;;5073237;28;19925;-52
2022/04/28 09:22:43;;;;;;;;;;;25.80;72.90;;;;;;5062814;28;19924;-52
2022/04/28 09:25:11;;;;;;;;;;;26.30;70.20;;;;;;5060046;28;19994;-50
2022/04/28 09:27:39;;;;;;;;;;;26.20;71.20;;;;;;5058752;28;20345;-50
2022/04/28 09:30:08;;;;;;;;;;;26.80;69.70;;;;;;5054932;28;19998;-50
2022/04/28 09:32:40;;;;;;;;;;;26.50;69.10;;;;;;5066794;28;19929;-50
2022/04/28 09:35:10;;;;;;;;;;;26.30;70.80;;;;;;5072284;28;19924;-50
2022/04/28 09:37:38;;;;;;;;;;;25.90;69.20;;;;;;5071728;28;19924;-50
2022/04/28 09:42:50;;;;;;;;;;;24.70;73.00;;;;;;5069021;28;19927;-51
2022/04/28 09:45:20;;;;;;;;;;;26.00;70.30;;;;;;5064158;28;19941;-50
2022/04/28 09:47:56;;;;;;;;;;;26.40;67.90;;;;;;5062670;28;19982;-51
2022/04/28 09:50:25;;;;;;;;;;;27.30;65.60;;;;;;5070096;28;19998;-52
2022/04/28 09:52:54;;;;;;;;;;;28.40;65.10;;;;;;5072729;28;19978;-50
2022/04/28 09:55:23;;;;;;;;;;;28.30;65.30;;;;;;5072460;28;19924;-50
2022/04/28 09:57:50;;;;;;;;;;;27.90;64.50;;;;;;5072830;28;19925;-49
2022/04/28 10:00:17;;;;;;;;;;;26.00;66.10;;;;;;5072212;28;19928;-50
2022/04/28 10:02:44;;;;;;;;;;;26.50;68.40;;;;;;5071890;28;19930;-51
2022/04/28 10:05:14;;;;;;;;;;;27.00;67.50;;;;;;5073178;28;19970;-51
2022/04/28 10:07:41;;;;;;;;;;;27.70;65.50;;;;;;5072869;28;19924;-50
2022/04/28 10:10:08;;;;;;;;;;;28.60;67.30;;;;;;5072640;28;19931;-50
2022/04/28 10:12:35;;;;;;;;;;;27.20;67.20;;;;;;5071895;28;19978;-50
2022/04/28 10:15:04;;;;;;;;;;;27.60;66.90;;;;;;5071095;28;19924;-50
2022/04/28 10:17:33;;;;;;;;;;;27.80;67.50;;;;;;5072450;28;20452;-50
2022/04/28 10:20:02;;;;;;;;;;;28.30;67.80;;;;;;5072628;28;20072;-48
2022/04/28 10:22:33;;;;;;;;;;;28.40;68.70;;;;;;5072024;28;19993;-49
2022/04/28 10:33:41;;;;;;;;;;;26.10;68.10;;;;;;5065378;28;19947;-49
2022/04/28 10:36:15;;;;;;;;;;;26.00;71.10;;;;;;5063767;28;19939;-48
2022/04/28 10:39:03;;;;;;;;;;;27.30;68.50;;;;;;5056429;28;19924;-49
2022/04/28 10:41:30;;;;;;;;;;;27.40;68.50;;;;;;5055026;28;20019;-49
2022/04/28 10:43:58;;;;;;;;;;;26.20;69.00;;;;;;5052017;28;19929;-48
2022/04/28 10:46:32;;;;;;;;;;;24.90;72.70;;;;;;5051729;28;19971;-48
2022/04/28 10:49:00;;;;;;;;;;;26.10;73.70;;;;;;5051493;28;19925;-48
2022/04/28 10:51:31;;;;;;;;;;;24.80;71.90;;;;;;5054882;28;19928;-49
2022/04/28 10:54:01;;;;;;;;;;;23.70;75.90;;;;;;5056398;28;20019;-47
2022/04/28 10:56:29;;;;;;;;;;;22.70;80.00;;;;;;5060563;28;19929;-48
2022/04/28 10:58:59;;;;;;;;;;;22.00;80.70;;;;;;5070572;28;19935;-49
2022/04/28 11:01:27;;;;;;;;;;;22.20;79.00;;;;;;5060649;28;19925;-49
2022/04/28 11:03:55;;;;;;;;;;;22.20;81.30;;;;;;5058861;28;19931;-49
2022/04/28 11:06:24;;;;;;;;;;;21.90;80.20;;;;;;5068084;28;19924;-49
2022/04/28 11:08:53;;;;;;;;;;;21.80;84.90;;;;;;5070584;28;19928;-50
2022/04/28 11:11:22;;;;;;;;;;;21.70;77.40;;;;;;5071489;28;20291;-49
2022/04/28 11:13:57;;;;;;;;;;;21.60;78.10;;;;;;5071377;28;19925;-49
2022/04/28 11:16:24;;;;;;;;;;;21.80;85.70;;;;;;5071006;28;19929;-49
2022/04/28 11:18:52;;;;;;;;;;;22.10;77.80;;;;;;5071079;28;20390;-50
2022/04/28 11:21:19;;;;;;;;;;;22.20;76.60;;;;;;5071402;28;19929;-50
2022/04/28 11:23:47;;;;;;;;;;;21.70;83.70;;;;;;5071824;28;20405;-49
2022/04/28 11:26:14;;;;;;;;;;;21.60;84.50;;;;;;5070309;28;19982;-49
2022/04/28 11:28:43;;;;;;;;;;;21.40;80.70;;;;;;5066032;28;19970;-49
2022/04/28 11:31:13;;;;;;;;;;;21.50;80.10;;;;;;5051797;28;20391;-49
2022/04/28 11:33:42;;;;;;;;;;;21.60;81.60;;;;;;5051722;28;19925;-49
2022/04/28 11:36:19;;;;;;;;;;;21.30;84.70;;;;;;5062514;28;19924;-49
2022/04/28 11:38:49;;;;;;;;;;;21.00;79.30;;;;;;5071842;28;19928;-51
2022/04/28 11:41:15;;;;;;;;;;;21.00;83.30;;;;;;5071693;28;19928;-49
2022/04/28 11:43:44;;;;;;;;;;;21.20;81.10;;;;;;5071174;28;19985;-51
2022/04/28 11:46:10;;;;;;;;;;;21.10;82.50;;;;;;5064697;28;20025;-49
2022/04/28 11:48:38;;;;;;;;;;;21.30;82.50;;;;;;5071112;28;19990;-49
2022/04/28 11:51:05;;;;;;;;;;;20.90;84.10;;;;;;5070046;28;19951;-51
2022/04/28 11:53:42;;;;;;;;;;;20.50;84.60;;;;;;5071541;28;20140;-49
2022/04/28 11:56:30;;;;;;;;;;;20.80;85.60;;;;;;5068822;28;19979;-48
2022/04/28 11:58:59;;;;;;;;;;;20.90;85.20;;;;;;5071249;28;19924;-49
2022/04/28 12:01:27;;;;;;;;;;;20.80;84.40;;;;;;5071442;28;19931;-48
2022/04/28 12:03:54;;;;;;;;;;;20.40;85.20;;;;;;5071161;28;19936;-49
2022/04/28 12:06:21;;;;;;;;;;;20.40;84.10;;;;;;5051778;28;19929;-48
2022/04/28 12:08:52;;;;;;;;;;;20.40;85.40;;;;;;5068766;28;19924;-49
2022/04/28 12:14:23;;;;;;;;;;;20.00;81.90;;;;;;5072290;28;19990;-48
2022/04/28 12:19:47;;;;;;;;;;;19.90;86.90;;;;;;5075395;28;19926;-49
2022/04/28 12:22:14;;;;;;;;;;;20.00;83.60;;;;;;5074567;28;19925;-51
2022/04/28 12:24:43;;;;;;;;;;;20.10;83.70;;;;;;5075107;28;19928;-49
2022/04/28 12:27:11;;;;;;;;;;;20.10;82.40;;;;;;5072940;28;19951;-50
2022/04/28 12:29:52;;;;;;;;;;;20.10;85.60;;;;;;5073270;28;19990;-48
2022/04/28 12:32:19;;;;;;;;;;;20.40;87.30;;;;;;5065935;28;19924;-49
2022/04/28 12:34:46;;;;;;;;;;;20.40;79.50;;;;;;5069454;28;20144;-47
2022/04/28 12:37:23;;;;;;;;;;;20.10;81.30;;;;;;5069091;28;19970;-48
2022/04/28 12:39:57;;;;;;;;;;;19.90;85.80;;;;;;5066823;28;19979;-49
2022/04/28 12:42:25;;;;;;;;;;;20.00;78.30;;;;;;5079466;22;19971;-59
2022/04/28 12:44:54;;;;;;;;;;;20.30;80.10;;;;;;5046171;28;19925;-58
2022/04/28 12:47:21;;;;;;;;;;;20.30;82.90;;;;;;5052783;28;20375;-59
2022/04/28 12:49:48;;;;;;;;;;;20.20;81.70;;;;;;5052836;28;20412;-59
2022/04/28 12:52:27;;;;;;;;;;;20.20;80.20;;;;;;5052859;28;20010;-59
2022/04/28 12:55:01;;;;;;;;;;;20.20;76.60;;;;;;5052717;28;19929;-59
2022/04/28 12:57:30;;;;;;;;;;;20.30;83.00;;;;;;5054150;28;19925;-59
2022/04/28 13:00:00;;;;;;;;;;;20.40;78.80;;;;;;5053150;28;19925;-59
2022/04/28 13:02:29;;;;;;;;;;;20.40;81.20;;;;;;5040675;28;19955;-59
2022/04/28 13:04:55;;;;;;;;;;;20.50;79.50;;;;;;5050929;28;19971;-59
2022/04/28 13:07:22;;;;;;;;;;;20.60;76.80;;;;;;5045538;28;19925;-59
2022/04/28 13:09:49;;;;;;;;;;;20.20;75.80;;;;;;5050736;28;19925;-59
2022/04/28 13:12:16;;;;;;;;;;;20.30;79.20;;;;;;5048533;28;19936;-59
2022/04/28 13:14:43;;;;;;;;;;;20.30;78.50;;;;;;5046829;28;19925;-58
2022/04/28 13:17:11;;;;;;;;;;;20.50;79.30;;;;;;5042226;28;20016;-58
2022/04/28 13:19:37;;;;;;;;;;;20.60;79.70;;;;;;5051112;28;19929;-59
2022/04/28 13:22:04;;;;;;;;;;;20.40;77.80;;;;;;5044145;28;19933;-59
2022/04/28 13:24:31;;;;;;;;;;;20.60;80.00;;;;;;5046481;28;20410;-59
2022/04/28 13:26:59;;;;;;;;;;;20.60;74.70;;;;;;5050383;28;19929;-59
2022/04/28 13:29:26;;;;;;;;;;;20.40;78.90;;;;;;5051141;28;19928;-59
2022/04/28 13:31:53;;;;;;;;;;;20.30;77.80;;;;;;5051831;28;19925;-59
2022/04/28 13:34:21;;;;;;;;;;;20.40;78.70;;;;;;5052247;28;20359;-59
2022/04/28 13:36:48;;;;;;;;;;;20.50;78.10;;;;;;5049738;28;20464;-59
2022/04/28 13:39:15;;;;;;;;;;;20.60;78.70;;;;;;5051982;28;20397;-59
2022/04/28 13:41:43;;;;;;;;;;;20.50;76.10;;;;;;5051797;28;19925;-59
2022/04/28 13:44:11;;;;;;;;;;;20.50;79.40;;;;;;5052071;28;19971;-59
2022/04/28 13:46:39;;;;;;;;;;;20.20;74.90;;;;;;5051051;28;19925;-59
2022/04/28 13:49:06;;;;;;;;;;;20.00;77.50;;;;;;5052423;28;19925;-59
2022/04/28 13:51:34;;;;;;;;;;;20.30;76.00;;;;;;5048277;28;19925;-59
2022/04/28 13:54:01;;;;;;;;;;;20.40;77.00;;;;;;5051613;28;19983;-59
2022/04/28 13:56:28;;;;;;;;;;;20.40;75.50;;;;;;5052259;28;20327;-59
2022/04/28 13:58:55;;;;;;;;;;;20.30;76.80;;;;;;5051913;28;19925;-59
2022/04/28 14:01:21;;;;;;;;;;;20.30;76.50;;;;;;5050662;28;20024;-59
2022/04/28 14:03:48;;;;;;;;;;;20.10;76.30;;;;;;5051182;28;19937;-60
2022/04/28 14:06:15;;;;;;;;;;;20.10;78.10;;;;;;5052009;28;19979;-60
2022/04/28 14:08:44;;;;;;;;;;;20.20;74.70;;;;;;5051775;28;20012;-60
2022/04/28 14:11:10;;;;;;;;;;;20.10;76.90;;;;;;5051589;28;20074;-60
2022/04/28 14:13:37;;;;;;;;;;;20.40;76.30;;;;;;5051635;28;19936;-60
2022/04/28 14:16:04;;;;;;;;;;;20.30;75.50;;;;;;5051515;28;20349;-60
2022/04/28 14:18:31;;;;;;;;;;;20.10;72.40;;;;;;5050478;28;19924;-59
2022/04/28 14:20:58;;;;;;;;;;;19.50;76.00;;;;;;5051216;28;19937;-60
2022/04/28 14:23:25;;;;;;;;;;;19.60;78.70;;;;;;5052595;28;19924;-60
2022/04/28 14:25:53;;;;;;;;;;;19.80;76.70;;;;;;5051394;28;19986;-60
2022/04/28 14:28:20;;;;;;;;;;;19.90;75.80;;;;;;5051460;28;19929;-60
2022/04/28 14:30:47;;;;;;;;;;;20.00;75.40;;;;;;5050981;28;19929;-59
2022/04/28 14:33:14;;;;;;;;;;;20.00;74.70;;;;;;5051382;28;19928;-59
2022/04/28 14:35:41;;;;;;;;;;;20.00;75.20;;;;;;5050053;28;19924;-60
2022/04/28 14:38:07;;;;;;;;;;;20.10;76.80;;;;;;5050766;28;19987;-59
2022/04/28 14:40:35;;;;;;;;;;;20.10;78.00;;;;;;5050995;28;19929;-59
2022/04/28 14:43:03;;;;;;;;;;;20.20;76.30;;;;;;5050856;28;19924;-60
2022/04/28 14:45:30;;;;;;;;;;;20.00;75.50;;;;;;5051299;28;19924;-60
2022/04/28 14:47:56;;;;;;;;;;;20.10;74.30;;;;;;5051306;28;19932;-60
2022/04/28 14:53:07;;;;;;;;;;;20.10;76.70;;;;;;5042583;28;20027;-60
2022/04/28 14:55:34;;;;;;;;;;;20.10;76.40;;;;;;5050684;28;19929;-60
2022/04/28 14:58:06;;;;;;;;;;;20.00;75.80;;;;;;5051042;28;19925;-60
2022/04/28 15:00:35;;;;;;;;;;;19.70;74.50;;;;;;5051216;28;20071;-60